sensor_id;sensor_type;location;lat;lon;timestamp;temperature;humidity
30399;DHT22;17195;50.838;7.214;2023-05-02T00:00:29;9.30;99.90
30399;DHT22;17195;50.838;7.214;2023-05-02T00:02:55;9.40;99.90
30399;DHT22;17195;50.838;7.214;2023-05-02T00:05:21;9.40;99.90
30399;DHT22;17195;50.838;7.214;2023-05-02T00:07:46;9.40;99.90
30399;DHT22;17195;50.838;7.214;2023-05-02T00:10:12;9.50;99.90
30399;DHT22;17195;50.838;7.214;2023-05-02T00:12:38;9.50;99.90
30399;DHT22;17195;50.838;7.214;2023-05-02T00:15:04;9.50;99.90
30399;DHT22;17195;50.838;7.214;2023-05-02T00:17:30;9.60;99.90
30399;DHT22;17195;50.838;7.214;2023-05-02T00:19:56;9.60;99.90
30399;DHT22;17195;50.838;7.214;2023-05-02T00:22:21;9.70;99.90
30399;DHT22;17195;50.838;7.214;2023-05-02T00:24:47;9.70;99.90
30399;DHT22;17195;50.838;7.214;2023-05-02T00:27:12;9.80;99.90
30399;DHT22;17195;50.838;7.214;2023-05-02T00:29:39;9.80;99.90
30399;DHT22;17195;50.838;7.214;2023-05-02T00:32:05;9.80;99.90
30399;DHT22;17195;50.838;7.214;2023-05-02T00:34:31;9.80;99.90
30399;DHT22;17195;50.838;7.214;2023-05-02T00:36:57;9.70;99.90
30399;DHT22;17195;50.838;7.214;2023-05-02T00:39:22;9.70;99.90
30399;DHT22;17195;50.838;7.214;2023-05-02T00:41:48;9.60;99.90
30399;DHT22;17195;50.838;7.214;2023-05-02T00:44:14;9.50;99.90
30399;DHT22;17195;50.838;7.214;2023-05-02T00:46:41;9.40;99.90
30399;DHT22;17195;50.838;7.214;2023-05-02T00:49:06;9.30;99.90
30399;DHT22;17195;50.838;7.214;2023-05-02T00:51:32;9.30;99.90
30399;DHT22;17195;50.838;7.214;2023-05-02T00:53:59;9.20;99.90
30399;DHT22;17195;50.838;7.214;2023-05-02T00:56:25;9.20;99.90
30399;DHT22;17195;50.838;7.214;2023-05-02T00:58:51;9.20;99.90
30399;DHT22;17195;50.838;7.214;2023-05-02T01:04:34;9.20;99.90
30399;DHT22;17195;50.838;7.214;2023-05-02T01:07:17;9.10;99.90
30399;DHT22;17195;50.838;7.214;2023-05-02T01:10:00;9.10;99.90
30399;DHT22;17195;50.838;7.214;2023-05-02T01:12:40;9.10;99.90
30399;DHT22;17195;50.838;7.214;2023-05-02T01:15:10;9.00;99.90
30399;DHT22;17195;50.838;7.214;2023-05-02T01:17:37;9.00;99.90
30399;DHT22;17195;50.838;7.214;2023-05-02T01:20:08;9.00;99.90
30399;DHT22;17195;50.838;7.214;2023-05-02T01:22:37;9.00;99.90
30399;DHT22;17195;50.838;7.214;2023-05-02T01:25:43;9.00;99.90
30399;DHT22;17195;50.838;7.214;2023-05-02T01:28:46;9.00;99.90
30399;DHT22;17195;50.838;7.214;2023-05-02T01:31:13;9.10;99.90
30399;DHT22;17195;50.838;7.214;2023-05-02T01:33:40;9.20;99.90
30399;DHT22;17195;50.838;7.214;2023-05-02T01:36:07;9.20;99.90
30399;DHT22;17195;50.838;7.214;2023-05-02T01:38:33;9.30;99.90
30399;DHT22;17195;50.838;7.214;2023-05-02T01:41:00;9.40;99.90
30399;DHT22;17195;50.838;7.214;2023-05-02T01:43:30;9.40;99.90
30399;DHT22;17195;50.838;7.214;2023-05-02T01:45:57;9.50;99.90
30399;DHT22;17195;50.838;7.214;2023-05-02T01:51:49;9.60;99.90
30399;DHT22;17195;50.838;7.214;2023-05-02T01:57:39;9.60;99.90
30399;DHT22;17195;50.838;7.214;2023-05-02T02:06:54;9.90;99.90
30399;DHT22;17195;50.838;7.214;2023-05-02T02:09:22;9.90;99.90
30399;DHT22;17195;50.838;7.214;2023-05-02T02:14:35;9.90;99.90
30399;DHT22;17195;50.838;7.214;2023-05-02T02:17:05;9.90;99.90
30399;DHT22;17195;50.838;7.214;2023-05-02T02:19:33;9.90;99.90
30399;DHT22;17195;50.838;7.214;2023-05-02T02:21:59;9.90;99.90
30399;DHT22;17195;50.838;7.214;2023-05-02T02:24:27;10.00;99.90
30399;DHT22;17195;50.838;7.214;2023-05-02T02:26:54;9.90;99.90
30399;DHT22;17195;50.838;7.214;2023-05-02T02:29:19;10.00;99.90
30399;DHT22;17195;50.838;7.214;2023-05-02T02:31:45;10.00;99.90
30399;DHT22;17195;50.838;7.214;2023-05-02T02:34:11;10.00;99.90
30399;DHT22;17195;50.838;7.214;2023-05-02T02:42:03;10.10;99.90
30399;DHT22;17195;50.838;7.214;2023-05-02T02:44:53;10.20;99.90
30399;DHT22;17195;50.838;7.214;2023-05-02T02:47:35;10.20;99.90
30399;DHT22;17195;50.838;7.214;2023-05-02T02:53:01;10.30;99.90
30399;DHT22;17195;50.838;7.214;2023-05-02T02:58:17;10.30;99.90
30399;DHT22;17195;50.838;7.214;2023-05-02T03:00:45;10.40;99.90
30399;DHT22;17195;50.838;7.214;2023-05-02T03:03:13;10.40;99.90
30399;DHT22;17195;50.838;7.214;2023-05-02T03:05:38;10.30;99.90
30399;DHT22;17195;50.838;7.214;2023-05-02T03:08:04;10.40;99.90
30399;DHT22;17195;50.838;7.214;2023-05-02T03:10:30;10.40;99.90
30399;DHT22;17195;50.838;7.214;2023-05-02T03:12:58;10.40;99.90
30399;DHT22;17195;50.838;7.214;2023-05-02T03:16:05;10.40;99.90
30399;DHT22;17195;50.838;7.214;2023-05-02T03:18:36;10.40;99.90
30399;DHT22;17195;50.838;7.214;2023-05-02T03:21:02;10.40;99.90
30399;DHT22;17195;50.838;7.214;2023-05-02T03:23:27;10.40;99.90
30399;DHT22;17195;50.838;7.214;2023-05-02T03:25:53;10.40;99.90
30399;DHT22;17195;50.838;7.214;2023-05-02T03:28:18;10.30;99.90
30399;DHT22;17195;50.838;7.214;2023-05-02T03:30:44;10.40;99.90
30399;DHT22;17195;50.838;7.214;2023-05-02T03:33:10;10.40;99.90
30399;DHT22;17195;50.838;7.214;2023-05-02T03:35:35;10.40;99.90
30399;DHT22;17195;50.838;7.214;2023-05-02T03:38:01;10.40;99.90
30399;DHT22;17195;50.838;7.214;2023-05-02T03:40:26;10.40;99.90
30399;DHT22;17195;50.838;7.214;2023-05-02T03:42:52;10.40;99.90
30399;DHT22;17195;50.838;7.214;2023-05-02T03:45:18;10.50;99.90
30399;DHT22;17195;50.838;7.214;2023-05-02T03:47:43;10.50;99.90
30399;DHT22;17195;50.838;7.214;2023-05-02T03:50:09;10.50;99.90
30399;DHT22;17195;50.838;7.214;2023-05-02T03:52:35;10.40;99.90
30399;DHT22;17195;50.838;7.214;2023-05-02T03:55:01;10.40;99.90
30399;DHT22;17195;50.838;7.214;2023-05-02T03:57:29;10.50;99.90
30399;DHT22;17195;50.838;7.214;2023-05-02T03:59:54;10.50;99.90
30399;DHT22;17195;50.838;7.214;2023-05-02T04:02:20;10.50;99.90
30399;DHT22;17195;50.838;7.214;2023-05-02T04:04:46;10.50;99.90
30399;DHT22;17195;50.838;7.214;2023-05-02T04:07:11;10.50;99.90
30399;DHT22;17195;50.838;7.214;2023-05-02T04:09:42;10.50;99.90
30399;DHT22;17195;50.838;7.214;2023-05-02T04:12:08;10.60;99.90
30399;DHT22;17195;50.838;7.214;2023-05-02T04:14:34;10.50;99.90
30399;DHT22;17195;50.838;7.214;2023-05-02T04:16:59;10.50;99.90
30399;DHT22;17195;50.838;7.214;2023-05-02T04:19:25;10.50;99.90
30399;DHT22;17195;50.838;7.214;2023-05-02T04:21:50;10.60;99.90
30399;DHT22;17195;50.838;7.214;2023-05-02T04:24:16;10.60;99.90
30399;DHT22;17195;50.838;7.214;2023-05-02T04:26:41;10.60;99.90
30399;DHT22;17195;50.838;7.214;2023-05-02T04:29:07;10.60;99.90
30399;DHT22;17195;50.838;7.214;2023-05-02T04:31:32;10.60;99.90
30399;DHT22;17195;50.838;7.214;2023-05-02T04:33:58;10.60;99.90
30399;DHT22;17195;50.838;7.214;2023-05-02T04:36:24;10.60;99.90
30399;DHT22;17195;50.838;7.214;2023-05-02T04:38:53;10.70;99.90
30399;DHT22;17195;50.838;7.214;2023-05-02T04:41:18;10.70;99.90
30399;DHT22;17195;50.838;7.214;2023-05-02T04:43:44;10.70;99.90
30399;DHT22;17195;50.838;7.214;2023-05-02T04:46:09;10.60;99.90
30399;DHT22;17195;50.838;7.214;2023-05-02T04:48:35;10.70;99.90
30399;DHT22;17195;50.838;7.214;2023-05-02T04:51:01;10.70;99.90
30399;DHT22;17195;50.838;7.214;2023-05-02T04:53:27;10.70;99.90
30399;DHT22;17195;50.838;7.214;2023-05-02T04:55:53;10.70;99.90
30399;DHT22;17195;50.838;7.214;2023-05-02T04:58:18;10.70;99.90
30399;DHT22;17195;50.838;7.214;2023-05-02T05:00:44;10.70;99.90
30399;DHT22;17195;50.838;7.214;2023-05-02T05:03:09;10.70;99.90
30399;DHT22;17195;50.838;7.214;2023-05-02T05:05:35;10.70;99.90
30399;DHT22;17195;50.838;7.214;2023-05-02T05:08:00;10.70;99.90
30399;DHT22;17195;50.838;7.214;2023-05-02T05:10:26;10.70;99.90
30399;DHT22;17195;50.838;7.214;2023-05-02T05:12:51;10.70;99.90
30399;DHT22;17195;50.838;7.214;2023-05-02T05:15:17;10.70;99.90
30399;DHT22;17195;50.838;7.214;2023-05-02T05:17:46;10.70;99.90
30399;DHT22;17195;50.838;7.214;2023-05-02T05:20:12;10.80;99.90
30399;DHT22;17195;50.838;7.214;2023-05-02T05:22:38;10.80;99.90
30399;DHT22;17195;50.838;7.214;2023-05-02T05:25:04;10.90;99.90
30399;DHT22;17195;50.838;7.214;2023-05-02T05:27:30;11.00;99.90
30399;DHT22;17195;50.838;7.214;2023-05-02T05:29:55;11.00;99.90
30399;DHT22;17195;50.838;7.214;2023-05-02T05:32:21;11.10;99.90
30399;DHT22;17195;50.838;7.214;2023-05-02T05:34:51;11.20;99.90
30399;DHT22;17195;50.838;7.214;2023-05-02T05:37:17;11.30;99.90
30399;DHT22;17195;50.838;7.214;2023-05-02T05:39:43;11.30;99.90
30399;DHT22;17195;50.838;7.214;2023-05-02T05:42:08;11.30;99.90
30399;DHT22;17195;50.838;7.214;2023-05-02T05:44:37;11.30;99.90
30399;DHT22;17195;50.838;7.214;2023-05-02T05:47:03;11.30;99.90
30399;DHT22;17195;50.838;7.214;2023-05-02T05:49:28;11.40;99.90
30399;DHT22;17195;50.838;7.214;2023-05-02T05:51:54;11.40;99.90
30399;DHT22;17195;50.838;7.214;2023-05-02T05:54:20;11.40;99.90
30399;DHT22;17195;50.838;7.214;2023-05-02T05:56:45;11.40;99.90
30399;DHT22;17195;50.838;7.214;2023-05-02T05:59:11;11.40;99.90
30399;DHT22;17195;50.838;7.214;2023-05-02T06:01:37;11.40;99.90
30399;DHT22;17195;50.838;7.214;2023-05-02T06:04:03;11.40;99.90
30399;DHT22;17195;50.838;7.214;2023-05-02T06:06:29;11.30;99.90
30399;DHT22;17195;50.838;7.214;2023-05-02T06:08:56;11.40;99.90
30399;DHT22;17195;50.838;7.214;2023-05-02T06:11:22;11.30;99.90
30399;DHT22;17195;50.838;7.214;2023-05-02T06:13:51;11.20;99.90
30399;DHT22;17195;50.838;7.214;2023-05-02T06:16:17;11.20;99.90
30399;DHT22;17195;50.838;7.214;2023-05-02T06:18:43;11.10;99.90
30399;DHT22;17195;50.838;7.214;2023-05-02T06:21:09;11.20;99.90
30399;DHT22;17195;50.838;7.214;2023-05-02T06:23:35;11.20;99.90
30399;DHT22;17195;50.838;7.214;2023-05-02T06:26:02;11.30;99.90
30399;DHT22;17195;50.838;7.214;2023-05-02T06:28:27;11.30;99.90
30399;DHT22;17195;50.838;7.214;2023-05-02T06:31:01;11.40;99.90
30399;DHT22;17195;50.838;7.214;2023-05-02T06:33:28;11.40;99.90
30399;DHT22;17195;50.838;7.214;2023-05-02T06:35:53;11.60;99.90
30399;DHT22;17195;50.838;7.214;2023-05-02T06:38:19;11.60;99.90
30399;DHT22;17195;50.838;7.214;2023-05-02T06:40:45;11.70;99.90
30399;DHT22;17195;50.838;7.214;2023-05-02T06:43:11;11.70;99.90
30399;DHT22;17195;50.838;7.214;2023-05-02T06:45:38;11.60;99.90
30399;DHT22;17195;50.838;7.214;2023-05-02T06:48:03;11.60;99.90
30399;DHT22;17195;50.838;7.214;2023-05-02T06:50:29;11.60;99.90
30399;DHT22;17195;50.838;7.214;2023-05-02T06:52:54;11.70;99.90
30399;DHT22;17195;50.838;7.214;2023-05-02T06:55:20;11.70;99.90
30399;DHT22;17195;50.838;7.214;2023-05-02T06:57:48;11.80;99.90
30399;DHT22;17195;50.838;7.214;2023-05-02T07:00:16;11.80;99.90
30399;DHT22;17195;50.838;7.214;2023-05-02T07:02:41;11.80;99.90
30399;DHT22;17195;50.838;7.214;2023-05-02T07:05:07;11.80;99.90
30399;DHT22;17195;50.838;7.214;2023-05-02T07:07:33;11.90;99.90
30399;DHT22;17195;50.838;7.214;2023-05-02T07:09:58;11.90;99.90
30399;DHT22;17195;50.838;7.214;2023-05-02T07:12:25;11.90;99.90
30399;DHT22;17195;50.838;7.214;2023-05-02T07:14:51;11.90;99.90
30399;DHT22;17195;50.838;7.214;2023-05-02T07:17:16;11.90;99.90
30399;DHT22;17195;50.838;7.214;2023-05-02T07:19:42;11.90;99.90
30399;DHT22;17195;50.838;7.214;2023-05-02T07:22:08;11.80;99.90
30399;DHT22;17195;50.838;7.214;2023-05-02T07:24:33;11.80;99.90
30399;DHT22;17195;50.838;7.214;2023-05-02T07:26:59;11.70;99.90
30399;DHT22;17195;50.838;7.214;2023-05-02T07:29:25;11.60;99.90
30399;DHT22;17195;50.838;7.214;2023-05-02T07:31:51;11.40;99.90
30399;DHT22;17195;50.838;7.214;2023-05-02T07:34:16;11.30;99.90
30399;DHT22;17195;50.838;7.214;2023-05-02T07:36:42;11.40;99.90
30399;DHT22;17195;50.838;7.214;2023-05-02T07:39:07;11.50;99.90
30399;DHT22;17195;50.838;7.214;2023-05-02T07:41:33;11.50;99.90
30399;DHT22;17195;50.838;7.214;2023-05-02T07:43:58;11.50;99.90
30399;DHT22;17195;50.838;7.214;2023-05-02T07:46:24;11.50;99.90
30399;DHT22;17195;50.838;7.214;2023-05-02T07:48:49;11.60;99.90
30399;DHT22;17195;50.838;7.214;2023-05-02T07:51:15;11.60;99.90
30399;DHT22;17195;50.838;7.214;2023-05-02T07:53:41;11.70;99.90
30399;DHT22;17195;50.838;7.214;2023-05-02T07:56:07;11.70;99.90
30399;DHT22;17195;50.838;7.214;2023-05-02T07:58:34;11.90;99.90
30399;DHT22;17195;50.838;7.214;2023-05-02T08:01:01;12.00;99.90
30399;DHT22;17195;50.838;7.214;2023-05-02T08:03:28;12.10;99.90
30399;DHT22;17195;50.838;7.214;2023-05-02T08:05:54;12.20;99.90
30399;DHT22;17195;50.838;7.214;2023-05-02T08:08:19;12.40;99.90
30399;DHT22;17195;50.838;7.214;2023-05-02T08:10:45;12.60;99.90
30399;DHT22;17195;50.838;7.214;2023-05-02T08:13:11;12.60;99.90
30399;DHT22;17195;50.838;7.214;2023-05-02T08:15:37;12.60;99.90
30399;DHT22;17195;50.838;7.214;2023-05-02T08:18:02;12.70;99.90
30399;DHT22;17195;50.838;7.214;2023-05-02T08:20:28;12.70;99.90
30399;DHT22;17195;50.838;7.214;2023-05-02T08:22:53;13.00;99.90
30399;DHT22;17195;50.838;7.214;2023-05-02T08:25:19;13.10;99.90
30399;DHT22;17195;50.838;7.214;2023-05-02T08:27:44;13.30;99.90
30399;DHT22;17195;50.838;7.214;2023-05-02T08:30:11;13.40;99.90
30399;DHT22;17195;50.838;7.214;2023-05-02T08:32:36;13.50;99.90
30399;DHT22;17195;50.838;7.214;2023-05-02T08:35:02;13.70;99.90
30399;DHT22;17195;50.838;7.214;2023-05-02T08:37:28;13.70;99.90
30399;DHT22;17195;50.838;7.214;2023-05-02T08:39:53;13.60;99.90
30399;DHT22;17195;50.838;7.214;2023-05-02T08:42:19;13.50;99.90
30399;DHT22;17195;50.838;7.214;2023-05-02T08:44:47;13.30;99.90
30399;DHT22;17195;50.838;7.214;2023-05-02T08:47:14;13.20;99.90
30399;DHT22;17195;50.838;7.214;2023-05-02T08:49:41;13.00;99.90
30399;DHT22;17195;50.838;7.214;2023-05-02T08:52:08;12.80;99.90
30399;DHT22;17195;50.838;7.214;2023-05-02T08:54:37;12.70;99.90
30399;DHT22;17195;50.838;7.214;2023-05-02T08:57:03;12.90;99.90
30399;DHT22;17195;50.838;7.214;2023-05-02T08:59:29;12.90;99.90
30399;DHT22;17195;50.838;7.214;2023-05-02T09:02:02;13.00;99.90
30399;DHT22;17195;50.838;7.214;2023-05-02T09:04:31;13.10;99.90
30399;DHT22;17195;50.838;7.214;2023-05-02T09:07:00;13.10;99.90
30399;DHT22;17195;50.838;7.214;2023-05-02T09:09:25;13.30;99.90
30399;DHT22;17195;50.838;7.214;2023-05-02T09:11:51;13.40;99.90
30399;DHT22;17195;50.838;7.214;2023-05-02T09:14:17;13.40;99.90
30399;DHT22;17195;50.838;7.214;2023-05-02T09:16:43;13.60;99.90
30399;DHT22;17195;50.838;7.214;2023-05-02T09:19:09;13.60;99.90
30399;DHT22;17195;50.838;7.214;2023-05-02T09:21:38;13.60;99.90
30399;DHT22;17195;50.838;7.214;2023-05-02T09:24:21;13.40;99.90
30399;DHT22;17195;50.838;7.214;2023-05-02T09:27:00;13.10;99.90
30399;DHT22;17195;50.838;7.214;2023-05-02T09:29:31;13.00;99.90
30399;DHT22;17195;50.838;7.214;2023-05-02T09:32:04;13.00;99.90
30399;DHT22;17195;50.838;7.214;2023-05-02T09:34:30;12.90;99.90
30399;DHT22;17195;50.838;7.214;2023-05-02T09:36:56;12.80;99.90
30399;DHT22;17195;50.838;7.214;2023-05-02T09:39:26;12.80;99.90
30399;DHT22;17195;50.838;7.214;2023-05-02T09:41:56;12.80;99.90
30399;DHT22;17195;50.838;7.214;2023-05-02T09:44:34;13.00;99.90
30399;DHT22;17195;50.838;7.214;2023-05-02T09:47:00;13.00;99.90
30399;DHT22;17195;50.838;7.214;2023-05-02T09:49:42;13.20;99.90
30399;DHT22;17195;50.838;7.214;2023-05-02T09:52:14;13.30;99.90
30399;DHT22;17195;50.838;7.214;2023-05-02T09:54:41;13.30;99.90
30399;DHT22;17195;50.838;7.214;2023-05-02T09:57:07;13.20;99.90
30399;DHT22;17195;50.838;7.214;2023-05-02T09:59:35;13.10;99.90
30399;DHT22;17195;50.838;7.214;2023-05-02T10:02:05;12.90;99.90
30399;DHT22;17195;50.838;7.214;2023-05-02T10:04:32;12.70;99.90
30399;DHT22;17195;50.838;7.214;2023-05-02T10:06:59;12.60;99.90
30399;DHT22;17195;50.838;7.214;2023-05-02T10:09:26;12.60;99.90
30399;DHT22;17195;50.838;7.214;2023-05-02T10:11:54;12.60;99.90
30399;DHT22;17195;50.838;7.214;2023-05-02T10:14:21;12.70;99.90
30399;DHT22;17195;50.838;7.214;2023-05-02T10:16:51;12.70;99.90
30399;DHT22;17195;50.838;7.214;2023-05-02T10:19:23;12.90;99.90
30399;DHT22;17195;50.838;7.214;2023-05-02T10:21:52;13.10;99.90
30399;DHT22;17195;50.838;7.214;2023-05-02T10:24:18;13.10;99.90
30399;DHT22;17195;50.838;7.214;2023-05-02T10:26:46;13.10;99.90
30399;DHT22;17195;50.838;7.214;2023-05-02T10:29:12;13.20;99.90
30399;DHT22;17195;50.838;7.214;2023-05-02T10:31:38;13.20;99.90
30399;DHT22;17195;50.838;7.214;2023-05-02T10:34:05;13.10;99.90
30399;DHT22;17195;50.838;7.214;2023-05-02T10:36:34;13.10;99.90
30399;DHT22;17195;50.838;7.214;2023-05-02T10:39:01;13.20;99.90
30399;DHT22;17195;50.838;7.214;2023-05-02T10:41:30;13.40;99.90
30399;DHT22;17195;50.838;7.214;2023-05-02T10:43:56;13.50;99.90
30399;DHT22;17195;50.838;7.214;2023-05-02T10:46:37;13.70;99.90
30399;DHT22;17195;50.838;7.214;2023-05-02T10:49:07;13.90;99.90
30399;DHT22;17195;50.838;7.214;2023-05-02T10:51:34;14.10;99.90
30399;DHT22;17195;50.838;7.214;2023-05-02T10:54:19;14.10;99.90
30399;DHT22;17195;50.838;7.214;2023-05-02T10:57:02;14.20;99.90
30399;DHT22;17195;50.838;7.214;2023-05-02T10:59:37;14.30;99.90
30399;DHT22;17195;50.838;7.214;2023-05-02T11:05:01;15.00;99.90
30399;DHT22;17195;50.838;7.214;2023-05-02T11:07:32;15.20;99.90
30399;DHT22;17195;50.838;7.214;2023-05-02T11:10:24;15.30;99.90
30399;DHT22;17195;50.838;7.214;2023-05-02T11:12:52;15.50;99.90
30399;DHT22;17195;50.838;7.214;2023-05-02T11:18:11;15.10;99.90
30399;DHT22;17195;50.838;7.214;2023-05-02T11:20:42;14.90;99.90
30399;DHT22;17195;50.838;7.214;2023-05-02T11:25:50;15.20;99.90
30399;DHT22;17195;50.838;7.214;2023-05-02T11:31:04;15.40;99.90
30399;DHT22;17195;50.838;7.214;2023-05-02T11:33:30;15.30;99.90
30399;DHT22;17195;50.838;7.214;2023-05-02T11:35:56;15.60;99.90
30399;DHT22;17195;50.838;7.214;2023-05-02T11:38:23;15.70;99.90
30399;DHT22;17195;50.838;7.214;2023-05-02T11:40:53;15.70;99.90
30399;DHT22;17195;50.838;7.214;2023-05-02T11:43:20;15.40;99.90
30399;DHT22;17195;50.838;7.214;2023-05-02T11:45:47;15.30;99.90
30399;DHT22;17195;50.838;7.214;2023-05-02T11:48:15;15.30;99.90
30399;DHT22;17195;50.838;7.214;2023-05-02T11:50:43;15.40;99.90
30399;DHT22;17195;50.838;7.214;2023-05-02T11:53:13;15.70;99.90
30399;DHT22;17195;50.838;7.214;2023-05-02T11:55:50;16.20;99.90
30399;DHT22;17195;50.838;7.214;2023-05-02T11:58:18;16.00;99.90
30399;DHT22;17195;50.838;7.214;2023-05-02T12:00:45;16.10;99.90
30399;DHT22;17195;50.838;7.214;2023-05-02T12:03:28;16.00;99.90
30399;DHT22;17195;50.838;7.214;2023-05-02T12:05:54;16.40;99.90
30399;DHT22;17195;50.838;7.214;2023-05-02T12:08:22;16.50;99.90
30399;DHT22;17195;50.838;7.214;2023-05-02T12:10:49;16.80;99.90
30399;DHT22;17195;50.838;7.214;2023-05-02T12:13:16;17.10;99.90
30399;DHT22;17195;50.838;7.214;2023-05-02T12:15:42;17.10;99.90
30399;DHT22;17195;50.838;7.214;2023-05-02T12:18:08;17.10;99.90
30399;DHT22;17195;50.838;7.214;2023-05-02T12:20:35;17.10;99.90
30399;DHT22;17195;50.838;7.214;2023-05-02T12:23:01;17.10;99.90
30399;DHT22;17195;50.838;7.214;2023-05-02T12:25:28;17.00;99.90
30399;DHT22;17195;50.838;7.214;2023-05-02T12:28:02;16.90;99.90
30399;DHT22;17195;50.838;7.214;2023-05-02T12:30:29;16.90;99.90
30399;DHT22;17195;50.838;7.214;2023-05-02T12:32:59;17.00;99.90
30399;DHT22;17195;50.838;7.214;2023-05-02T12:35:28;17.10;99.90
30399;DHT22;17195;50.838;7.214;2023-05-02T12:38:06;17.30;99.90
30399;DHT22;17195;50.838;7.214;2023-05-02T12:40:31;17.20;99.90
30399;DHT22;17195;50.838;7.214;2023-05-02T12:43:00;17.10;99.90
30399;DHT22;17195;50.838;7.214;2023-05-02T12:45:29;17.30;99.90
30399;DHT22;17195;50.838;7.214;2023-05-02T12:47:59;17.30;99.90
30399;DHT22;17195;50.838;7.214;2023-05-02T12:50:35;17.30;99.00
30399;DHT22;17195;50.838;7.214;2023-05-02T12:53:01;17.30;98.40
30399;DHT22;17195;50.838;7.214;2023-05-02T12:55:28;17.70;98.50
30399;DHT22;17195;50.838;7.214;2023-05-02T12:58:06;18.10;97.90
30399;DHT22;17195;50.838;7.214;2023-05-02T13:00:36;18.20;98.00
30399;DHT22;17195;50.838;7.214;2023-05-02T13:03:02;18.10;98.10
30399;DHT22;17195;50.838;7.214;2023-05-02T13:05:27;18.00;98.00
30399;DHT22;17195;50.838;7.214;2023-05-02T13:07:53;17.70;97.80
30399;DHT22;17195;50.838;7.214;2023-05-02T13:10:21;17.30;97.80
30399;DHT22;17195;50.838;7.214;2023-05-02T13:12:47;16.80;98.00
30399;DHT22;17195;50.838;7.214;2023-05-02T13:15:13;16.40;98.20
30399;DHT22;17195;50.838;7.214;2023-05-02T13:17:39;15.80;98.30
30399;DHT22;17195;50.838;7.214;2023-05-02T13:20:05;15.40;98.50
30399;DHT22;17195;50.838;7.214;2023-05-02T13:22:32;15.20;99.60
30399;DHT22;17195;50.838;7.214;2023-05-02T13:24:58;15.10;99.50
30399;DHT22;17195;50.838;7.214;2023-05-02T13:27:23;15.20;99.80
30399;DHT22;17195;50.838;7.214;2023-05-02T13:29:49;15.30;99.60
30399;DHT22;17195;50.838;7.214;2023-05-02T13:32:15;15.60;99.40
30399;DHT22;17195;50.838;7.214;2023-05-02T13:34:41;16.00;98.80
30399;DHT22;17195;50.838;7.214;2023-05-02T13:37:07;16.10;98.00
30399;DHT22;17195;50.838;7.214;2023-05-02T13:39:33;16.40;97.70
30399;DHT22;17195;50.838;7.214;2023-05-02T13:41:59;16.40;96.90
30399;DHT22;17195;50.838;7.214;2023-05-02T13:44:28;16.70;96.70
30399;DHT22;17195;50.838;7.214;2023-05-02T13:46:53;16.90;96.20
30399;DHT22;17195;50.838;7.214;2023-05-02T13:49:19;16.90;95.30
30399;DHT22;17195;50.838;7.214;2023-05-02T13:51:44;17.10;94.70
30399;DHT22;17195;50.838;7.214;2023-05-02T13:54:10;17.30;95.10
30399;DHT22;17195;50.838;7.214;2023-05-02T13:56:35;17.50;94.90
30399;DHT22;17195;50.838;7.214;2023-05-02T13:59:01;17.70;93.80
30399;DHT22;17195;50.838;7.214;2023-05-02T14:01:27;17.70;92.80
30399;DHT22;17195;50.838;7.214;2023-05-02T14:03:52;17.80;93.10
30399;DHT22;17195;50.838;7.214;2023-05-02T14:06:18;17.80;92.00
30399;DHT22;17195;50.838;7.214;2023-05-02T14:08:44;17.80;91.90
30399;DHT22;17195;50.838;7.214;2023-05-02T14:11:10;17.80;91.80
30399;DHT22;17195;50.838;7.214;2023-05-02T14:13:35;17.60;92.00
30399;DHT22;17195;50.838;7.214;2023-05-02T14:16:01;17.70;92.30
30399;DHT22;17195;50.838;7.214;2023-05-02T14:18:27;17.90;92.20
30399;DHT22;17195;50.838;7.214;2023-05-02T14:20:52;17.90;90.80
30399;DHT22;17195;50.838;7.214;2023-05-02T14:23:18;18.00;90.60
30399;DHT22;17195;50.838;7.214;2023-05-02T14:25:44;17.80;88.70
30399;DHT22;17195;50.838;7.214;2023-05-02T14:28:09;17.50;86.70
30399;DHT22;17195;50.838;7.214;2023-05-02T14:30:35;17.40;88.00
30399;DHT22;17195;50.838;7.214;2023-05-02T14:33:00;17.50;89.20
30399;DHT22;17195;50.838;7.214;2023-05-02T14:35:26;17.60;85.60
30399;DHT22;17195;50.838;7.214;2023-05-02T14:37:51;17.20;87.90
30399;DHT22;17195;50.838;7.214;2023-05-02T14:40:17;16.70;89.60
30399;DHT22;17195;50.838;7.214;2023-05-02T14:42:43;16.80;89.90
30399;DHT22;17195;50.838;7.214;2023-05-02T14:45:09;17.30;90.00
30399;DHT22;17195;50.838;7.214;2023-05-02T14:47:35;17.50;89.20
30399;DHT22;17195;50.838;7.214;2023-05-02T14:50:02;17.80;88.90
30399;DHT22;17195;50.838;7.214;2023-05-02T14:52:28;18.30;87.70
30399;DHT22;17195;50.838;7.214;2023-05-02T14:54:54;18.10;85.10
30399;DHT22;17195;50.838;7.214;2023-05-02T14:57:19;18.00;85.90
30399;DHT22;17195;50.838;7.214;2023-05-02T14:59:45;18.30;85.20
30399;DHT22;17195;50.838;7.214;2023-05-02T15:02:10;18.70;83.90
30399;DHT22;17195;50.838;7.214;2023-05-02T15:04:36;19.30;81.50
30399;DHT22;17195;50.838;7.214;2023-05-02T15:07:02;19.70;79.50
30399;DHT22;17195;50.838;7.214;2023-05-02T15:09:28;19.80;76.90
30399;DHT22;17195;50.838;7.214;2023-05-02T15:11:55;19.80;78.60
30399;DHT22;17195;50.838;7.214;2023-05-02T15:14:21;20.40;76.80
30399;DHT22;17195;50.838;7.214;2023-05-02T15:16:46;21.10;74.80
30399;DHT22;17195;50.838;7.214;2023-05-02T15:19:12;22.00;70.90
30399;DHT22;17195;50.838;7.214;2023-05-02T15:21:38;23.10;68.50
30399;DHT22;17195;50.838;7.214;2023-05-02T15:24:04;25.30;64.30
30399;DHT22;17195;50.838;7.214;2023-05-02T15:26:30;27.70;56.20
30399;DHT22;17195;50.838;7.214;2023-05-02T15:28:56;29.40;48.20
30399;DHT22;17195;50.838;7.214;2023-05-02T15:31:21;31.40;42.20
30399;DHT22;17195;50.838;7.214;2023-05-02T15:33:47;31.40;38.10
30399;DHT22;17195;50.838;7.214;2023-05-02T15:36:12;33.30;37.30
30399;DHT22;17195;50.838;7.214;2023-05-02T15:38:38;34.20;33.60
30399;DHT22;17195;50.838;7.214;2023-05-02T15:41:08;35.10;31.80
30399;DHT22;17195;50.838;7.214;2023-05-02T15:43:34;36.10;29.90
30399;DHT22;17195;50.838;7.214;2023-05-02T15:45:59;36.30;28.70
30399;DHT22;17195;50.838;7.214;2023-05-02T15:48:29;35.70;28.00
30399;DHT22;17195;50.838;7.214;2023-05-02T15:50:55;36.00;27.60
30399;DHT22;17195;50.838;7.214;2023-05-02T15:53:22;36.40;27.30
30399;DHT22;17195;50.838;7.214;2023-05-02T15:55:48;38.10;26.00
30399;DHT22;17195;50.838;7.214;2023-05-02T15:58:15;37.90;25.40
30399;DHT22;17195;50.838;7.214;2023-05-02T16:00:42;38.40;24.90
30399;DHT22;17195;50.838;7.214;2023-05-02T16:03:07;36.80;25.10
30399;DHT22;17195;50.838;7.214;2023-05-02T16:05:34;36.80;25.00
30399;DHT22;17195;50.838;7.214;2023-05-02T16:07:59;37.20;24.90
30399;DHT22;17195;50.838;7.214;2023-05-02T16:10:25;38.20;24.00
30399;DHT22;17195;50.838;7.214;2023-05-02T16:12:51;38.50;23.60
30399;DHT22;17195;50.838;7.214;2023-05-02T16:15:18;38.90;23.10